Time;durP1;ratioP1;P1;durP2;ratioP2;P2;SDS_P1;SDS_P2;PMS_P1;PMS_P2;Temp;Humidity;BMP_temperature;BMP_pressure;BME280_temperature;BME280_humidity;BME280_pressure;Samples;Min_cycle;Max_cycle;Signal;HPM_P1;HPM_P2
2022/04/14 00:02:49;;;;;;;34.08;18.55;;;14.70;72.50;;;;;;9180221;19;20482;-65
2022/04/14 00:05:54;;;;;;;29.77;18.10;;;14.60;72.40;;;;;;9180617;19;20346;-66
2022/04/14 00:08:59;;;;;;;30.85;19.63;;;14.60;72.50;;;;;;9178218;19;20015;-68
2022/04/14 00:12:05;;;;;;;31.88;19.73;;;14.60;72.50;;;;;;9179448;19;20011;-67
2022/04/14 00:15:13;;;;;;;32.88;19.05;;;14.60;72.70;;;;;;9179306;19;20022;-67
2022/04/14 00:18:18;;;;;;;35.92;20.13;;;14.50;72.70;;;;;;9179265;19;20010;-67
2022/04/14 00:21:23;;;;;;;34.55;19.75;;;14.50;72.70;;;;;;9187957;19;20349;-67
2022/04/14 00:24:28;;;;;;;40.33;20.98;;;14.50;72.70;;;;;;9187221;19;20014;-67
2022/04/14 00:27:33;;;;;;;39.20;20.80;;;14.40;72.70;;;;;;9189089;19;20018;-66
2022/04/14 00:30:41;;;;;;;31.27;18.80;;;14.50;72.90;;;;;;9190950;19;20475;-67
2022/04/14 00:33:46;;;;;;;33.20;19.58;;;14.40;72.90;;;;;;9189103;19;20081;-66
2022/04/14 00:36:51;;;;;;;29.42;18.17;;;14.40;72.90;;;;;;9183196;19;20018;-66
2022/04/14 00:39:56;;;;;;;37.17;20.13;;;14.40;73.00;;;;;;9188260;19;20048;-66
2022/04/14 00:43:01;;;;;;;35.80;21.38;;;14.40;73.00;;;;;;9184052;19;20026;-66
2022/04/14 00:46:09;;;;;;;31.00;19.33;;;14.40;73.10;;;;;;9189497;19;20387;-67
2022/04/14 00:49:16;;;;;;;30.88;19.25;;;14.30;73.20;;;;;;9188714;19;20017;-67
2022/04/14 00:52:24;;;;;;;31.95;18.40;;;14.30;73.70;;;;;;9189266;19;20014;-66
2022/04/14 00:55:29;;;;;;;34.25;17.98;;;14.30;73.20;;;;;;9188628;19;20011;-67
2022/04/14 00:58:34;;;;;;;29.25;17.90;;;14.30;73.80;;;;;;9188797;19;20015;-66
2022/04/14 01:01:42;;;;;;;32.40;18.60;;;14.20;73.20;;;;;;9182685;19;20017;-66
2022/04/14 01:04:49;;;;;;;28.67;18.95;;;14.20;73.30;;;;;;9188066;19;20022;-66
2022/04/14 01:07:54;;;;;;;32.50;19.45;;;14.20;73.30;;;;;;9187756;19;20467;-67
2022/04/14 01:11:00;;;;;;;33.42;20.15;;;14.20;73.30;;;;;;9186994;19;20006;-66
2022/04/14 01:14:05;;;;;;;36.50;19.88;;;14.20;73.40;;;;;;9185637;19;20047;-66
2022/04/14 01:17:13;;;;;;;35.55;20.42;;;14.10;73.40;;;;;;9186384;19;20021;-67
2022/04/14 01:20:18;;;;;;;39.28;20.15;;;14.10;73.50;;;;;;9185956;19;20010;-67
2022/04/14 01:23:38;;;;;;;32.97;20.05;;;14.10;73.50;;;;;;9185268;19;20036;-66
2022/04/14 01:26:43;;;;;;;36.97;20.60;;;14.10;73.60;;;;;;9186187;19;20022;-67
2022/04/14 01:29:51;;;;;;;33.70;19.58;;;14.10;73.50;;;;;;9186295;19;20483;-67
2022/04/14 01:32:57;;;;;;;39.70;20.50;;;14.00;73.50;;;;;;9185168;19;20345;-67
2022/04/14 01:36:02;;;;;;;37.40;20.40;;;14.00;73.60;;;;;;9182478;19;20055;-66
2022/04/14 01:39:11;;;;;;;33.65;20.02;;;14.00;73.60;;;;;;9186248;19;20340;-66
2022/04/14 01:42:16;;;;;;;37.95;20.80;;;14.00;73.70;;;;;;9186181;19;20019;-66
2022/04/14 01:45:21;;;;;;;29.48;19.00;;;13.90;73.60;;;;;;9185260;19;20638;-66
2022/04/14 01:48:27;;;;;;;33.78;20.45;;;13.90;73.70;;;;;;9185280;19;20021;-66
2022/04/14 01:51:32;;;;;;;36.20;19.55;;;13.90;73.70;;;;;;9186433;19;20013;-66
2022/04/14 01:54:40;;;;;;;42.88;21.48;;;13.90;73.80;;;;;;9184678;19;20023;-66
2022/04/14 01:57:46;;;;;;;35.00;21.08;;;13.90;73.90;;;;;;9185772;19;20010;-66
2022/04/14 02:00:51;;;;;;;37.67;20.88;;;13.80;73.80;;;;;;9185810;19;20022;-65
2022/04/14 02:03:57;;;;;;;38.22;21.13;;;13.80;73.90;;;;;;9182733;19;20469;-66
2022/04/14 02:07:02;;;;;;;33.97;20.55;;;13.80;73.90;;;;;;9185188;19;20014;-66
2022/04/14 02:10:13;;;;;;;38.05;21.52;;;13.80;73.90;;;;;;9184085;19;20061;-66
2022/04/14 02:13:18;;;;;;;31.35;19.58;;;13.70;73.90;;;;;;9185995;19;20070;-67
2022/04/14 02:16:23;;;;;;;31.95;20.42;;;13.70;73.90;;;;;;9186086;19;20044;-66
2022/04/14 02:19:28;;;;;;;34.10;21.27;;;13.70;73.90;;;;;;9184055;19;20074;-68
2022/04/14 02:22:40;;;;;;;37.35;22.05;;;13.70;74.00;;;;;;9183862;19;20017;-66
2022/04/14 02:25:48;;;;;;;44.17;24.17;;;13.70;74.10;;;;;;9185518;19;20478;-67
2022/04/14 02:28:54;;;;;;;41.80;24.80;;;13.60;74.00;;;;;;9184344;19;20021;-67
2022/04/14 02:32:00;;;;;;;41.38;22.98;;;13.60;74.00;;;;;;9183814;19;20423;-67
2022/04/14 02:35:05;;;;;;;39.97;23.15;;;13.60;74.00;;;;;;9183951;19;20330;-66
2022/04/14 02:38:11;;;;;;;40.95;24.30;;;13.60;74.00;;;;;;9179792;19;20011;-67
2022/04/14 02:41:18;;;;;;;46.22;24.88;;;13.60;74.00;;;;;;9180336;19;20015;-66
2022/04/14 02:44:23;;;;;;;40.05;23.77;;;13.50;74.00;;;;;;9180806;19;20010;-67
2022/04/14 02:47:29;;;;;;;45.78;25.02;;;13.40;74.00;;;;;;9184753;19;20033;-67
2022/04/14 02:50:36;;;;;;;42.95;25.08;;;13.40;74.10;;;;;;9183600;19;20364;-67
2022/04/14 02:53:41;;;;;;;45.97;25.95;;;13.40;74.10;;;;;;9184319;19;20021;-66
2022/04/14 02:56:48;;;;;;;45.88;25.65;;;13.40;74.20;;;;;;9181016;19;20026;-66
2022/04/14 02:59:53;;;;;;;46.92;24.77;;;13.30;74.20;;;;;;9182293;19;20033;-67
2022/04/14 03:02:59;;;;;;;45.45;24.63;;;13.30;74.20;;;;;;9181195;19;20010;-67
2022/04/14 03:06:05;;;;;;;47.55;25.15;;;13.30;74.30;;;;;;9183571;19;20021;-67
2022/04/14 03:09:10;;;;;;;46.85;25.02;;;13.20;74.20;;;;;;9179384;19;20029;-67
2022/04/14 03:12:17;;;;;;;41.40;24.65;;;13.20;74.30;;;;;;9183124;19;20018;-68
2022/04/14 03:15:22;;;;;;;48.38;24.60;;;13.20;74.40;;;;;;9181244;19;20015;-66
2022/04/14 03:18:27;;;;;;;44.85;24.90;;;13.20;74.40;;;;;;9181125;19;20018;-66
2022/04/14 03:21:32;;;;;;;50.05;25.95;;;13.10;74.40;;;;;;9181031;19;20010;-66
2022/04/14 03:24:38;;;;;;;49.45;25.80;;;13.10;74.40;;;;;;9180137;19;20018;-67
2022/04/14 03:27:45;;;;;;;51.20;28.42;;;13.10;74.50;;;;;;9183468;19;20015;-66
2022/04/14 03:30:50;;;;;;;56.65;30.30;;;13.00;74.60;;;;;;9182378;19;20023;-66
2022/04/14 03:33:55;;;;;;;49.42;29.33;;;13.00;74.60;;;;;;9181159;19;20379;-66
2022/04/14 03:37:00;;;;;;;63.67;32.33;;;13.00;74.70;;;;;;9179073;19;20018;-67
2022/04/14 03:40:08;;;;;;;59.83;30.95;;;13.00;74.80;;;;;;9181030;19;20018;-67
2022/04/14 03:43:18;;;;;;;66.45;32.63;;;12.90;74.80;;;;;;9179556;19;20018;-66
2022/04/14 03:46:23;;;;;;;59.95;32.42;;;13.00;75.00;;;;;;9181851;19;20022;-67
2022/04/14 03:49:28;;;;;;;70.85;34.83;;;12.90;74.90;;;;;;9183280;19;20094;-67
2022/04/14 03:52:34;;;;;;;74.38;37.38;;;12.90;75.00;;;;;;9180619;19;20029;-66
2022/04/14 03:55:39;;;;;;;73.97;35.15;;;12.90;75.10;;;;;;9190311;19;20018;-66
2022/04/14 03:58:46;;;;;;;71.40;36.55;;;12.90;75.20;;;;;;9189889;19;20014;-67
2022/04/14 04:01:51;;;;;;;65.07;34.85;;;12.90;75.30;;;;;;9189127;19;20014;-67
2022/04/14 04:04:57;;;;;;;64.00;35.30;;;12.90;75.20;;;;;;9186433;19;20351;-67
2022/04/14 04:08:02;;;;;;;63.90;35.25;;;12.90;75.30;;;;;;9187624;19;20348;-67
2022/04/14 04:11:07;;;;;;;73.13;37.05;;;12.80;75.30;;;;;;9191265;19;20007;-66
2022/04/14 04:14:14;;;;;;;63.20;34.45;;;12.90;75.50;;;;;;9188681;19;20379;-67
2022/04/14 04:17:19;;;;;;;66.95;34.95;;;12.90;75.50;;;;;;9189809;19;20011;-67
2022/04/14 04:20:25;;;;;;;66.45;34.63;;;12.90;75.50;;;;;;9190481;19;20017;-66
2022/04/14 04:23:30;;;;;;;68.57;35.08;;;12.90;75.50;;;;;;9189740;19;20522;-67
2022/04/14 04:26:35;;;;;;;68.20;35.53;;;12.80;75.50;;;;;;9187791;19;20022;-66
2022/04/14 04:29:43;;;;;;;70.15;34.33;;;12.90;75.60;;;;;;9190060;19;20011;-66
2022/04/14 04:32:48;;;;;;;68.88;34.78;;;12.90;75.70;;;;;;9188365;19;20018;-68
2022/04/14 04:35:53;;;;;;;64.63;35.33;;;12.80;75.60;;;;;;9182599;19;20017;-67
2022/04/14 04:38:58;;;;;;;66.38;35.90;;;12.80;75.60;;;;;;9188748;19;20018;-67
2022/04/14 04:42:03;;;;;;;69.20;35.63;;;12.80;75.60;;;;;;9187136;19;20019;-67
2022/04/14 04:45:11;;;;;;;74.63;36.83;;;12.80;75.70;;;;;;9186280;19;20011;-67
2022/04/14 04:48:16;;;;;;;65.35;36.20;;;12.80;75.80;;;;;;9185319;19;20030;-67
2022/04/14 04:51:21;;;;;;;71.32;36.45;;;12.80;75.80;;;;;;9187125;19;20490;-67
2022/04/14 04:54:26;;;;;;;58.28;34.22;;;12.80;75.80;;;;;;9186778;19;20018;-67
2022/04/14 04:57:30;;;;;;;75.32;33.92;;;12.80;75.80;;;;;;9189580;19;20010;-66
2022/04/14 05:00:38;;;;;;;59.58;33.97;;;12.80;75.90;;;;;;9188092;19;20365;-67
2022/04/14 05:03:43;;;;;;;61.55;34.05;;;12.80;76.00;;;;;;9187402;19;20494;-67
2022/04/14 05:06:48;;;;;;;60.47;33.30;;;12.70;75.90;;;;;;9186992;19;20018;-66
2022/04/14 05:09:53;;;;;;;93.63;36.40;;;12.70;75.90;;;;;;9186377;19;20006;-68
2022/04/14 05:12:58;;;;;;;101.25;36.20;;;12.70;76.00;;;;;;9187725;19;20029;-66
2022/04/14 05:16:09;;;;;;;68.40;37.35;;;12.70;76.00;;;;;;9186414;19;20044;-66
2022/04/14 05:19:14;;;;;;;59.90;35.28;;;12.70;76.10;;;;;;9187267;19;20018;-67
2022/04/14 05:22:19;;;;;;;58.20;34.67;;;12.70;76.10;;;;;;9183307;19;20375;-67
2022/04/14 05:25:24;;;;;;;60.75;35.60;;;12.70;76.10;;;;;;9181595;19;20022;-67
2022/04/14 05:28:29;;;;;;;69.47;36.00;;;12.70;76.20;;;;;;9179161;19;20109;-66
2022/04/14 05:31:37;;;;;;;58.05;33.92;;;12.70;76.20;;;;;;9178194;19;20026;-66
2022/04/14 05:34:42;;;;;;;57.17;32.75;;;12.70;76.30;;;;;;9181706;19;20021;-66
2022/04/14 05:37:47;;;;;;;58.88;33.97;;;12.70;76.20;;;;;;9177287;19;20475;-67
2022/04/14 05:40:53;;;;;;;62.30;33.50;;;12.70;76.20;;;;;;9179798;19;20022;-67
2022/04/14 05:43:58;;;;;;;57.83;32.72;;;12.70;76.30;;;;;;9179238;19;20022;-66
2022/04/14 05:47:06;;;;;;;53.25;32.00;;;12.70;76.30;;;;;;9181998;19;20014;-66
2022/04/14 05:50:12;;;;;;;57.60;33.83;;;12.60;76.30;;;;;;9179313;19;20498;-67
2022/04/14 05:53:17;;;;;;;59.53;32.20;;;12.60;76.20;;;;;;9181633;19;20018;-68
2022/04/14 05:56:22;;;;;;;57.55;31.73;;;12.60;76.30;;;;;;9184193;19;20015;-67
2022/04/14 05:59:27;;;;;;;56.55;32.30;;;12.60;76.30;;;;;;9184258;19;20015;-67
2022/04/14 06:02:35;;;;;;;52.33;30.90;;;12.60;76.30;;;;;;9185031;19;20010;-67
2022/04/14 06:05:40;;;;;;;56.85;32.45;;;12.60;76.40;;;;;;9183687;19;20479;-67
2022/04/14 06:08:46;;;;;;;55.40;32.03;;;12.60;76.40;;;;;;9182366;19;20018;-68
2022/04/14 06:11:51;;;;;;;56.83;33.00;;;12.60;76.50;;;;;;9182355;19;20014;-67
2022/04/14 06:14:56;;;;;;;52.00;32.08;;;12.60;76.50;;;;;;9177771;19;20468;-67
2022/04/14 06:18:04;;;;;;;53.65;30.70;;;12.50;76.50;;;;;;9179173;19;20026;-67
2022/04/14 06:21:09;;;;;;;59.35;32.30;;;12.60;76.60;;;;;;9176084;19;20011;-67
2022/04/14 06:24:14;;;;;;;60.80;32.42;;;12.50;76.50;;;;;;9178698;19;20343;-67
2022/04/14 06:27:19;;;;;;;65.15;34.63;;;12.50;76.50;;;;;;9175271;19;20015;-67
2022/04/14 06:30:24;;;;;;;63.70;34.50;;;12.50;76.60;;;;;;9178398;19;20029;-67
2022/04/14 06:33:32;;;;;;;60.00;33.75;;;12.50;76.70;;;;;;9174766;19;20021;-67
2022/04/14 06:36:36;;;;;;;76.15;34.58;;;12.50;76.80;;;;;;9171467;19;20020;-67
2022/04/14 06:39:41;;;;;;;58.63;32.65;;;12.60;76.80;;;;;;9180532;19;20058;-67
2022/04/14 06:42:46;;;;;;;56.28;31.27;;;12.50;76.80;;;;;;9177271;19;20026;-67
2022/04/14 06:45:51;;;;;;;53.33;31.00;;;12.50;76.90;;;;;;9176256;19;20491;-67
2022/04/14 06:49:01;;;;;;;66.68;32.92;;;12.60;77.00;;;;;;9178259;19;20011;-67
2022/04/14 06:52:06;;;;;;;62.05;32.75;;;12.60;77.20;;;;;;9179030;19;20018;-67
2022/04/14 06:55:12;;;;;;;62.95;34.35;;;12.60;77.20;;;;;;9178078;19;20018;-67
2022/04/14 06:58:17;;;;;;;64.88;33.13;;;12.70;77.20;;;;;;9176399;19;20022;-67
2022/04/14 07:01:23;;;;;;;61.03;33.75;;;12.70;77.30;;;;;;9175591;19;20022;-67
2022/04/14 07:04:31;;;;;;;61.50;32.88;;;12.80;77.40;;;;;;9174820;19;20026;-67
2022/04/14 07:07:35;;;;;;;69.10;35.67;;;12.80;77.50;;;;;;9176859;19;20966;-67
2022/04/14 07:10:40;;;;;;;71.35;35.88;;;12.80;77.50;;;;;;9178092;19;20376;-67
2022/04/14 07:13:48;;;;;;;62.03;34.40;;;12.90;77.50;;;;;;9177534;19;20543;-67
2022/04/14 07:16:53;;;;;;;62.13;35.20;;;13.00;77.50;;;;;;9176013;19;20336;-67
2022/04/14 07:20:03;;;;;;;65.40;36.13;;;13.10;77.60;;;;;;9175386;19;20015;-67
2022/04/14 07:23:08;;;;;;;65.70;34.83;;;13.10;77.70;;;;;;9175301;19;20025;-67
2022/04/14 07:26:13;;;;;;;59.97;35.08;;;13.20;77.70;;;;;;9175827;19;20038;-66
2022/04/14 07:29:18;;;;;;;65.68;35.88;;;13.30;77.70;;;;;;9187941;19;20033;-67
2022/04/14 07:32:23;;;;;;;59.75;33.92;;;13.40;77.70;;;;;;9191851;19;20845;-67
2022/04/14 07:35:32;;;;;;;60.90;34.03;;;13.40;77.70;;;;;;9189500;19;20017;-67
2022/04/14 07:38:37;;;;;;;58.17;32.70;;;13.50;77.90;;;;;;9193319;19;20043;-67
2022/04/14 07:41:42;;;;;;;59.50;33.13;;;13.60;77.90;;;;;;9192443;19;20022;-67
2022/04/14 07:44:47;;;;;;;65.78;34.95;;;13.80;77.90;;;;;;9190690;19;20487;-67
2022/04/14 07:47:53;;;;;;;61.13;32.90;;;13.80;78.00;;;;;;9190315;19;20018;-67
2022/04/14 07:51:01;;;;;;;54.25;31.55;;;14.00;78.10;;;;;;9189135;19;20034;-67
2022/04/14 07:54:07;;;;;;;56.28;30.40;;;14.10;78.10;;;;;;9192112;19;20010;-67
2022/04/14 07:57:12;;;;;;;59.03;30.20;;;14.20;77.90;;;;;;9193809;19;20013;-67
2022/04/14 08:00:18;;;;;;;51.28;30.38;;;14.40;77.90;;;;;;9194197;19;20033;-67
2022/04/14 08:03:22;;;;;;;54.08;29.92;;;14.40;77.80;;;;;;9192166;19;20019;-67
2022/04/14 08:06:31;;;;;;;54.33;30.35;;;14.60;77.70;;;;;;9192197;19;20027;-67
2022/04/14 08:09:36;;;;;;;51.97;30.48;;;14.70;77.70;;;;;;9189925;19;20475;-67
2022/04/14 08:12:41;;;;;;;58.95;31.92;;;14.90;77.60;;;;;;9192326;19;20021;-67
2022/04/14 08:15:47;;;;;;;54.58;31.70;;;15.00;77.60;;;;;;9186806;19;20414;-67
2022/04/14 08:18:56;;;;;;;57.42;30.83;;;15.10;77.70;;;;;;9185604;19;20098;-67
2022/04/14 08:22:03;;;;;;;49.80;28.90;;;15.20;77.60;;;;;;9189439;19;20006;-67
2022/04/14 08:25:12;;;;;;;56.17;31.42;;;15.30;77.50;;;;;;9188660;19;20018;-73
2022/04/14 08:28:17;;;;;;;52.15;29.65;;;15.50;77.50;;;;;;9189103;19;20055;-72
2022/04/14 08:31:27;;;;;;;53.22;31.30;;;15.60;77.30;;;;;;9186975;19;20026;-72
2022/04/14 08:34:32;;;;;;;52.30;29.73;;;15.70;77.10;;;;;;9188427;19;20026;-72
2022/04/14 08:37:48;;;;;;;51.15;29.92;;;15.90;77.10;;;;;;9187436;19;20019;-72
2022/04/14 08:41:03;;;;;;;51.10;30.65;;;16.00;76.90;;;;;;9181822;19;20115;-72
2022/04/14 08:44:30;;;;;;;51.92;29.33;;;16.10;76.80;;;;;;9181961;19;20030;-72
2022/04/14 08:47:37;;;;;;;52.67;27.63;;;16.20;76.60;;;;;;9179203;19;20010;-72
2022/04/14 08:50:46;;;;;;;49.03;29.38;;;16.30;76.50;;;;;;9181791;19;20027;-72
2022/04/14 08:53:54;;;;;;;50.08;28.40;;;16.40;76.40;;;;;;9183620;19;20047;-72
2022/04/14 08:57:02;;;;;;;48.30;28.20;;;16.50;76.40;;;;;;9182159;19;20349;-72
2022/04/14 09:00:10;;;;;;;47.78;26.08;;;16.60;76.30;;;;;;9181684;19;20051;-72
2022/04/14 09:03:16;;;;;;;45.35;26.60;;;16.70;76.30;;;;;;9187998;19;20078;-72
2022/04/14 09:06:27;;;;;;;42.83;26.58;;;16.80;76.20;;;;;;9180046;19;20018;-72
2022/04/14 09:09:39;;;;;;;57.75;27.08;;;16.90;76.10;;;;;;9182073;19;20120;-72
2022/04/14 09:12:45;;;;;;;46.30;26.98;;;17.00;76.00;;;;;;9179886;19;20082;-72
2022/04/14 09:15:51;;;;;;;46.05;26.85;;;17.10;76.00;;;;;;9181604;19;20018;-72
2022/04/14 09:19:02;;;;;;;38.08;24.08;;;17.20;76.00;;;;;;9174818;19;20034;-72
2022/04/14 09:22:14;;;;;;;48.88;24.60;;;17.30;76.00;;;;;;9181565;19;20021;-72
2022/04/14 09:25:24;;;;;;;50.28;27.08;;;17.40;75.80;;;;;;9181314;19;20019;-72
2022/04/14 09:28:31;;;;;;;42.60;24.13;;;17.60;75.70;;;;;;9179448;19;20046;-73
2022/04/14 09:31:54;;;;;;;40.80;24.10;;;17.70;75.60;;;;;;9183304;19;20018;-72
2022/04/14 09:35:02;;;;;;;41.43;24.37;;;17.90;76.20;;;;;;9181745;19;20018;-71
2022/04/14 09:38:13;;;;;;;39.33;23.02;;;18.00;75.30;;;;;;9179226;19;20510;-70
2022/04/14 09:41:40;;;;;;;40.63;22.55;;;18.20;75.20;;;;;;9186716;19;20489;-71
2022/04/14 09:44:45;;;;;;;34.88;20.70;;;18.40;74.90;;;;;;9180542;19;20019;-70
2022/04/14 09:47:55;;;;;;;37.63;20.70;;;18.60;74.80;;;;;;9176473;19;20019;-71
2022/04/14 09:51:03;;;;;;;32.47;20.95;;;18.70;74.60;;;;;;9182257;19;20018;-71
2022/04/14 09:54:11;;;;;;;33.75;19.58;;;18.90;74.50;;;;;;9180949;19;20471;-70
2022/04/14 09:57:19;;;;;;;26.75;15.68;;;19.00;74.20;;;;;;9180354;19;20053;-71
2022/04/14 10:00:38;;;;;;;28.15;15.93;;;19.20;73.90;;;;;;9181414;19;20017;-71
2022/04/14 10:03:44;;;;;;;28.83;16.98;;;19.40;73.80;;;;;;9181886;19;20015;-71
2022/04/14 10:07:04;;;;;;;26.73;15.32;;;19.50;73.60;;;;;;9182184;19;20381;-71
2022/04/14 10:10:23;;;;;;;25.00;13.82;;;19.70;73.20;;;;;;9179316;19;20007;-71
2022/04/14 10:13:37;;;;;;;26.50;14.57;;;19.90;73.00;;;;;;9179140;19;20017;-71
2022/04/14 10:16:47;;;;;;;24.50;14.05;;;20.00;72.80;;;;;;9180713;19;20057;-71
2022/04/14 10:19:54;;;;;;;23.83;13.25;;;20.20;72.70;;;;;;9178331;19;20014;-71
2022/04/14 10:23:01;;;;;;;21.20;13.07;;;20.30;72.30;;;;;;9180776;19;20018;-71
2022/04/14 10:26:19;;;;;;;20.67;13.07;;;20.40;72.10;;;;;;9177308;19;20007;-71
2022/04/14 10:29:30;;;;;;;23.35;14.38;;;20.60;71.90;;;;;;9172280;19;20022;-71
2022/04/14 10:32:37;;;;;;;17.67;10.55;;;20.70;71.60;;;;;;9178943;19;20018;-71
2022/04/14 10:35:43;;;;;;;20.20;9.57;;;20.80;71.30;;;;;;9175797;19;20382;-71
2022/04/14 10:38:52;;;;;;;15.88;8.98;;;20.90;71.10;;;;;;9175707;19;20018;-71
2022/04/14 10:41:58;;;;;;;16.73;9.25;;;21.00;70.70;;;;;;9174722;19;20017;-70
2022/04/14 10:45:18;;;;;;;21.55;10.70;;;21.00;70.40;;;;;;9174656;19;20014;-69
2022/04/14 10:48:31;;;;;;;17.58;9.52;;;21.10;69.90;;;;;;9170316;19;20025;-69
2022/04/14 10:51:37;;;;;;;15.98;9.43;;;21.10;69.80;;;;;;9176106;19;20022;-71
2022/04/14 10:54:58;;;;;;;20.25;12.00;;;21.10;69.80;;;;;;9174651;19;20018;-68
2022/04/14 10:58:03;;;;;;;25.92;12.90;;;21.00;69.40;;;;;;9169302;19;20366;-69
2022/04/14 11:01:15;;;;;;;22.80;13.55;;;21.00;69.60;;;;;;9169772;19;20612;-69
2022/04/14 11:04:31;;;;;;;26.17;12.77;;;21.00;69.20;;;;;;9169571;19;20022;-69
2022/04/14 11:07:36;;;;;;;18.27;9.02;;;21.00;69.10;;;;;;9171146;19;20356;-69
2022/04/14 11:10:53;;;;;;;15.27;8.38;;;21.00;69.10;;;;;;9170221;19;20058;-69
2022/04/14 11:14:12;;;;;;;13.00;7.15;;;20.90;68.90;;;;;;9173234;19;20460;-69
2022/04/14 11:17:52;;;;;;;15.43;7.13;;;20.90;68.50;;;;;;9173009;19;20493;-65
2022/04/14 11:21:07;;;;;;;11.82;7.35;;;20.80;68.20;;;;;;9169571;19;20018;-66
2022/04/14 11:24:17;;;;;;;13.45;8.15;;;20.80;68.50;;;;;;9171068;19;20352;-66
2022/04/14 11:27:24;;;;;;;14.13;7.75;;;20.70;68.40;;;;;;9170418;19;20015;-65
2022/04/14 11:30:43;;;;;;;12.10;6.05;;;20.70;68.40;;;;;;9166942;19;20018;-67
2022/04/14 11:33:49;;;;;;;9.73;4.90;;;20.70;68.10;;;;;;9170635;19;20051;-69
2022/04/14 11:36:57;;;;;;;8.48;4.70;;;20.70;68.20;;;;;;9172981;19;20010;-68
2022/04/14 11:40:21;;;;;;;9.95;5.07;;;20.60;67.90;;;;;;9170321;19;20467;-68
2022/04/14 11:43:26;;;;;;;8.27;5.05;;;20.60;67.50;;;;;;9169205;19;20502;-69
2022/04/14 11:47:01;;;;;;;10.57;5.00;;;20.70;67.90;;;;;;9170230;19;20036;-69
2022/04/14 11:50:08;;;;;;;9.38;4.85;;;20.70;67.40;;;;;;9170830;19;20011;-69
2022/04/14 11:53:15;;;;;;;7.30;4.57;;;20.70;67.50;;;;;;9171374;19;20022;-67
2022/04/14 11:56:21;;;;;;;8.48;5.80;;;20.80;67.20;;;;;;9165727;19;20014;-67
2022/04/14 11:59:33;;;;;;;10.15;5.45;;;20.80;67.10;;;;;;9168338;19;20015;-69
2022/04/14 12:02:41;;;;;;;11.88;6.38;;;20.90;66.80;;;;;;9169731;19;20474;-69
2022/04/14 12:05:52;;;;;;;11.27;5.70;;;21.00;66.80;;;;;;9169088;19;20022;-68
2022/04/14 12:09:01;;;;;;;12.05;6.90;;;21.10;66.60;;;;;;9165211;19;20023;-68
2022/04/14 12:12:14;;;;;;;9.50;6.30;;;21.10;66.40;;;;;;9170763;19;20115;-66
2022/04/14 12:15:20;;;;;;;13.45;6.93;;;21.20;66.10;;;;;;9176348;19;20014;-66
2022/04/14 12:18:25;;;;;;;8.85;6.18;;;21.30;66.10;;;;;;9178476;19;20025;-67
2022/04/14 12:21:31;;;;;;;11.10;6.75;;;21.40;65.90;;;;;;9176124;19;20018;-65
2022/04/14 12:24:39;;;;;;;9.68;6.43;;;21.40;65.60;;;;;;9175561;19;20076;-66
2022/04/14 12:27:48;;;;;;;7.13;4.82;;;21.50;65.30;;;;;;9177195;19;20032;-66
2022/04/14 12:30:57;;;;;;;6.25;4.43;;;21.60;65.20;;;;;;9174872;19;20018;-69
2022/04/14 12:34:03;;;;;;;6.95;4.03;;;21.70;64.90;;;;;;9178306;19;20437;-70
2022/04/14 12:37:45;;;;;;;5.13;2.80;;;21.70;64.70;;;;;;9174088;19;20015;-70
2022/04/14 12:41:01;;;;;;;3.67;2.90;;;21.70;64.10;;;;;;9180558;19;20116;-70
2022/04/14 12:44:07;;;;;;;4.68;2.97;;;21.70;63.50;;;;;;9182008;19;20019;-70
2022/04/14 12:47:30;;;;;;;6.65;3.10;;;21.80;63.70;;;;;;9178756;19;20015;-69
2022/04/14 12:50:35;;;;;;;3.95;2.72;;;21.80;63.20;;;;;;9181805;19;20179;-69
2022/04/14 12:53:46;;;;;;;2.75;2.20;;;21.80;63.20;;;;;;9180835;19;20015;-69
2022/04/14 12:57:08;;;;;;;3.72;2.85;;;21.90;62.90;;;;;;9180699;19;20021;-69
2022/04/14 13:00:18;;;;;;;5.57;2.42;;;21.80;62.20;;;;;;9174277;19;20032;-69
2022/04/14 13:03:24;;;;;;;3.75;2.38;;;21.90;62.40;;;;;;9175345;19;20055;-71
2022/04/14 13:06:32;;;;;;;4.47;2.40;;;21.90;62.40;;;;;;9174837;19;20024;-69
2022/04/14 13:09:46;;;;;;;9.18;2.92;;;21.90;62.10;;;;;;9173068;19;20011;-70
2022/04/14 13:12:55;;;;;;;4.93;2.75;;;22.00;61.90;;;;;;9177133;19;20018;-69
2022/04/14 13:16:00;;;;;;;3.60;2.55;;;21.90;61.70;;;;;;9177139;19;20014;-70
2022/04/14 13:19:09;;;;;;;8.63;3.67;;;22.00;61.80;;;;;;9175598;19;20014;-69
2022/04/14 13:22:14;;;;;;;4.03;2.55;;;22.00;61.50;;;;;;9180840;19;20107;-67
2022/04/14 13:25:19;;;;;;;6.47;3.90;;;22.00;61.50;;;;;;9176339;19;20026;-70
2022/04/14 13:28:28;;;;;;;13.00;4.60;;;22.00;61.30;;;;;;9178683;19;20050;-69
2022/04/14 13:31:41;;;;;;;9.25;4.00;;;22.10;61.10;;;;;;9174789;19;20048;-68
2022/04/14 13:34:46;;;;;;;5.85;3.45;;;22.10;61.20;;;;;;9178634;19;20022;-69
2022/04/14 13:37:53;;;;;;;9.30;4.05;;;22.10;60.90;;;;;;9178981;19;20376;-68
2022/04/14 13:40:58;;;;;;;8.05;4.07;;;22.10;60.70;;;;;;9179540;19;20026;-68
2022/04/14 13:44:06;;;;;;;5.18;3.47;;;22.10;60.50;;;;;;9176110;19;20035;-68
2022/04/14 13:47:12;;;;;;;9.32;3.33;;;22.10;60.30;;;;;;9175428;19;20026;-68
2022/04/14 13:50:18;;;;;;;9.18;4.63;;;22.10;60.40;;;;;;9174820;19;20018;-68
2022/04/14 13:53:23;;;;;;;8.60;4.53;;;22.10;60.30;;;;;;9177385;19;20027;-68
2022/04/14 13:56:29;;;;;;;10.73;4.50;;;22.10;60.30;;;;;;9177235;19;20018;-69
2022/04/14 13:59:37;;;;;;;10.98;4.03;;;22.10;60.00;;;;;;9176465;19;20018;-68
2022/04/14 14:02:42;;;;;;;8.00;4.03;;;22.00;59.90;;;;;;9179677;19;20018;-69
2022/04/14 14:05:47;;;;;;;9.30;4.72;;;22.00;60.00;;;;;;9178305;19;20018;-68
2022/04/14 14:08:52;;;;;;;8.77;4.70;;;22.00;59.90;;;;;;9175460;19;20497;-68
2022/04/14 14:11:57;;;;;;;10.98;5.30;;;21.90;59.80;;;;;;9175938;19;20130;-69
2022/04/14 14:15:06;;;;;;;9.40;5.30;;;21.90;59.80;;;;;;9178987;19;20019;-67
2022/04/14 14:18:11;;;;;;;14.50;5.60;;;21.90;59.70;;;;;;9177388;19;20015;-68
2022/04/14 14:21:16;;;;;;;10.07;5.63;;;21.90;59.80;;;;;;9178835;19;20011;-69
2022/04/14 14:24:23;;;;;;;9.13;5.07;;;21.90;59.80;;;;;;9175224;19;20022;-70
2022/04/14 14:27:28;;;;;;;9.63;4.63;;;21.80;59.60;;;;;;9177192;19;20029;-68
2022/04/14 14:30:36;;;;;;;7.72;4.20;;;21.80;59.50;;;;;;9170759;19;20014;-67
2022/04/14 14:33:43;;;;;;;5.85;2.88;;;21.70;59.40;;;;;;9178253;19;20010;-67
2022/04/14 14:36:48;;;;;;;8.82;3.35;;;21.70;59.30;;;;;;9175960;19;20019;-68
2022/04/14 14:39:53;;;;;;;7.60;3.10;;;21.60;59.20;;;;;;9170372;19;20014;-69
2022/04/14 14:42:58;;;;;;;5.63;2.50;;;21.60;59.20;;;;;;9176023;19;20033;-69
2022/04/14 14:46:21;;;;;;;10.23;3.83;;;21.50;59.10;;;;;;9177439;19;20019;-69
2022/04/14 14:49:29;;;;;;;9.95;3.40;;;21.50;58.70;;;;;;9169685;19;20026;-70
2022/04/14 14:52:34;;;;;;;4.07;2.10;;;21.50;59.10;;;;;;9169313;19;20018;-70
2022/04/14 14:55:39;;;;;;;7.95;2.60;;;21.40;58.90;;;;;;9171219;19;20022;-68
2022/04/14 15:02:06;;;;;;;7.28;2.97;;;21.30;58.70;;;;;;9170520;19;20014;-69
2022/04/14 15:05:11;;;;;;;6.00;2.10;;;21.20;58.50;;;;;;9170640;19;20034;-68
2022/04/14 15:08:16;;;;;;;6.50;2.60;;;21.20;58.60;;;;;;9169287;19;20022;-70
2022/04/14 15:11:21;;;;;;;7.38;2.88;;;21.10;58.60;;;;;;9169500;19;20022;-68
2022/04/14 15:14:27;;;;;;;6.82;2.40;;;21.10;58.60;;;;;;9167998;19;20019;-68
2022/04/14 15:17:34;;;;;;;6.55;2.33;;;21.00;58.60;;;;;;9160451;19;20098;-67
2022/04/14 15:20:39;;;;;;;7.28;2.47;;;21.00;58.50;;;;;;9168823;19;20007;-68
2022/04/14 15:23:44;;;;;;;3.97;2.17;;;20.90;58.50;;;;;;9165709;19;21656;-69
2022/04/14 15:26:49;;;;;;;4.07;2.30;;;20.90;58.50;;;;;;9166809;19;20022;-69
2022/04/14 15:29:54;;;;;;;4.22;2.45;;;20.80;58.40;;;;;;9165562;19;20368;-68
2022/04/14 15:33:02;;;;;;;5.20;2.33;;;20.70;58.40;;;;;;9169174;19;20392;-69
2022/04/14 15:36:08;;;;;;;5.53;2.50;;;20.70;58.40;;;;;;9168692;19;20018;-69
2022/04/14 15:39:13;;;;;;;9.35;2.58;;;20.70;58.50;;;;;;9168380;19;20022;-71
2022/04/14 15:42:18;;;;;;;10.20;3.15;;;20.60;58.40;;;;;;9170430;19;20019;-67
2022/04/14 15:45:23;;;;;;;7.38;3.00;;;20.50;58.40;;;;;;9175447;19;20023;-70
2022/04/14 15:48:31;;;;;;;7.45;3.58;;;20.50;58.50;;;;;;9175059;19;20018;-68
2022/04/14 15:51:37;;;;;;;10.65;3.28;;;20.40;58.50;;;;;;9183600;19;20090;-68
2022/04/14 15:54:42;;;;;;;4.43;2.92;;;20.30;58.50;;;;;;9184698;19;20348;-68
2022/04/14 15:57:47;;;;;;;6.82;3.03;;;20.30;58.60;;;;;;9184814;19;20357;-70
2022/04/14 16:00:52;;;;;;;7.25;2.97;;;20.20;58.60;;;;;;9182742;19;20036;-69
2022/04/14 16:04:00;;;;;;;6.70;3.33;;;20.20;58.70;;;;;;9184867;19;20026;-69